sensor_id;sensor_type;location;lat;lon;timestamp;temperature;humidity
23713;DHT22;12035;49.978;8.298;2023-01-31T00:03:04;7.40;68.50
23713;DHT22;12035;49.978;8.298;2023-01-31T00:08:03;7.40;68.60
23713;DHT22;12035;49.978;8.298;2023-01-31T00:13:00;7.40;69.00
23713;DHT22;12035;49.978;8.298;2023-01-31T00:17:57;7.40;69.00
23713;DHT22;12035;49.978;8.298;2023-01-31T00:22:55;7.40;69.10
23713;DHT22;12035;49.978;8.298;2023-01-31T00:27:57;7.40;69.10
23713;DHT22;12035;49.978;8.298;2023-01-31T00:32:54;7.30;69.10
23713;DHT22;12035;49.978;8.298;2023-01-31T00:37:51;7.30;68.80
23713;DHT22;12035;49.978;8.298;2023-01-31T00:42:48;7.30;68.90
23713;DHT22;12035;49.978;8.298;2023-01-31T00:47:47;7.20;68.80
23713;DHT22;12035;49.978;8.298;2023-01-31T00:52:44;7.20;69.60
23713;DHT22;12035;49.978;8.298;2023-01-31T00:57:41;7.20;68.70
23713;DHT22;12035;49.978;8.298;2023-01-31T01:02:39;7.10;68.60
23713;DHT22;12035;49.978;8.298;2023-01-31T01:07:37;7.10;68.80
23713;DHT22;12035;49.978;8.298;2023-01-31T01:12:35;7.00;68.80
23713;DHT22;12035;49.978;8.298;2023-01-31T01:17:32;7.00;69.00
23713;DHT22;12035;49.978;8.298;2023-01-31T01:22:29;6.90;68.90
23713;DHT22;12035;49.978;8.298;2023-01-31T01:27:28;6.90;69.00
23713;DHT22;12035;49.978;8.298;2023-01-31T01:32:26;6.90;69.10
23713;DHT22;12035;49.978;8.298;2023-01-31T01:37:23;6.80;69.10
23713;DHT22;12035;49.978;8.298;2023-01-31T01:42:22;6.80;69.40
23713;DHT22;12035;49.978;8.298;2023-01-31T01:47:32;6.80;69.60
23713;DHT22;12035;49.978;8.298;2023-01-31T01:52:34;6.80;69.80
23713;DHT22;12035;49.978;8.298;2023-01-31T01:57:36;6.80;69.70
23713;DHT22;12035;49.978;8.298;2023-01-31T02:02:36;6.80;69.80
23713;DHT22;12035;49.978;8.298;2023-01-31T02:07:33;6.90;69.90
23713;DHT22;12035;49.978;8.298;2023-01-31T02:12:32;6.90;69.80
23713;DHT22;12035;49.978;8.298;2023-01-31T02:17:29;7.00;69.80
23713;DHT22;12035;49.978;8.298;2023-01-31T02:22:31;7.00;69.70
23713;DHT22;12035;49.978;8.298;2023-01-31T02:27:47;7.00;69.60
23713;DHT22;12035;49.978;8.298;2023-01-31T02:33:12;7.00;69.50
23713;DHT22;12035;49.978;8.298;2023-01-31T02:38:22;7.00;69.30
23713;DHT22;12035;49.978;8.298;2023-01-31T02:43:34;7.00;69.10
23713;DHT22;12035;49.978;8.298;2023-01-31T02:49:05;6.90;69.00
23713;DHT22;12035;49.978;8.298;2023-01-31T02:54:08;6.90;69.00
23713;DHT22;12035;49.978;8.298;2023-01-31T02:59:12;6.80;68.90
23713;DHT22;12035;49.978;8.298;2023-01-31T03:04:16;6.80;69.00
23713;DHT22;12035;49.978;8.298;2023-01-31T03:09:17;6.70;69.00
23713;DHT22;12035;49.978;8.298;2023-01-31T03:14:23;6.70;69.10
23713;DHT22;12035;49.978;8.298;2023-01-31T03:19:31;6.70;69.20
23713;DHT22;12035;49.978;8.298;2023-01-31T03:24:30;6.60;69.20
23713;DHT22;12035;49.978;8.298;2023-01-31T03:29:29;6.60;69.20
23713;DHT22;12035;49.978;8.298;2023-01-31T03:34:31;6.60;69.20
23713;DHT22;12035;49.978;8.298;2023-01-31T03:39:36;6.50;69.20
23713;DHT22;12035;49.978;8.298;2023-01-31T03:44:39;6.50;69.30
23713;DHT22;12035;49.978;8.298;2023-01-31T03:49:41;6.50;69.40
23713;DHT22;12035;49.978;8.298;2023-01-31T03:54:45;6.40;69.40
23713;DHT22;12035;49.978;8.298;2023-01-31T03:59:47;6.40;69.50
23713;DHT22;12035;49.978;8.298;2023-01-31T04:04:52;6.30;69.50
23713;DHT22;12035;49.978;8.298;2023-01-31T04:09:51;6.20;69.60
23713;DHT22;12035;49.978;8.298;2023-01-31T04:14:48;6.20;69.70
23713;DHT22;12035;49.978;8.298;2023-01-31T04:19:45;6.20;69.80
23713;DHT22;12035;49.978;8.298;2023-01-31T04:24:44;6.20;69.90
23713;DHT22;12035;49.978;8.298;2023-01-31T04:29:41;6.20;70.00
23713;DHT22;12035;49.978;8.298;2023-01-31T04:34:38;6.20;70.10
23713;DHT22;12035;49.978;8.298;2023-01-31T04:39:35;6.20;70.00
23713;DHT22;12035;49.978;8.298;2023-01-31T04:44:34;6.30;70.00
23713;DHT22;12035;49.978;8.298;2023-01-31T04:49:32;6.20;69.90
23713;DHT22;12035;49.978;8.298;2023-01-31T04:54:29;6.20;69.80
23713;DHT22;12035;49.978;8.298;2023-01-31T04:59:26;6.20;69.80
23713;DHT22;12035;49.978;8.298;2023-01-31T05:04:24;6.20;69.80
23713;DHT22;12035;49.978;8.298;2023-01-31T05:09:21;6.10;69.70
23713;DHT22;12035;49.978;8.298;2023-01-31T05:14:19;6.10;69.80
23713;DHT22;12035;49.978;8.298;2023-01-31T05:19:16;6.10;69.80
23713;DHT22;12035;49.978;8.298;2023-01-31T05:24:15;6.00;69.80
23713;DHT22;12035;49.978;8.298;2023-01-31T05:29:12;6.00;69.80
23713;DHT22;12035;49.978;8.298;2023-01-31T05:34:09;6.00;69.80
23713;DHT22;12035;49.978;8.298;2023-01-31T05:39:09;5.90;69.70
23713;DHT22;12035;49.978;8.298;2023-01-31T05:44:09;5.90;69.80
23713;DHT22;12035;49.978;8.298;2023-01-31T05:49:06;5.80;69.80
23713;DHT22;12035;49.978;8.298;2023-01-31T05:54:04;5.80;70.00
23713;DHT22;12035;49.978;8.298;2023-01-31T05:59:02;5.80;70.00
23713;DHT22;12035;49.978;8.298;2023-01-31T06:04:00;5.70;70.00
23713;DHT22;12035;49.978;8.298;2023-01-31T06:08:57;5.70;70.10
23713;DHT22;12035;49.978;8.298;2023-01-31T06:13:55;5.70;70.10
23713;DHT22;12035;49.978;8.298;2023-01-31T06:18:54;5.70;71.00
23713;DHT22;12035;49.978;8.298;2023-01-31T06:23:53;5.70;70.30
23713;DHT22;12035;49.978;8.298;2023-01-31T06:28:50;5.70;70.30
23713;DHT22;12035;49.978;8.298;2023-01-31T06:33:47;5.70;70.40
23713;DHT22;12035;49.978;8.298;2023-01-31T06:38:48;5.70;70.40
23713;DHT22;12035;49.978;8.298;2023-01-31T06:43:47;5.70;70.40
23713;DHT22;12035;49.978;8.298;2023-01-31T06:48:45;5.70;70.40
23713;DHT22;12035;49.978;8.298;2023-01-31T06:53:43;5.70;70.40
23713;DHT22;12035;49.978;8.298;2023-01-31T06:58:41;5.70;70.40
23713;DHT22;12035;49.978;8.298;2023-01-31T07:03:40;5.70;70.50
23713;DHT22;12035;49.978;8.298;2023-01-31T07:08:37;5.70;70.60
23713;DHT22;12035;49.978;8.298;2023-01-31T07:13:34;5.70;70.60
23713;DHT22;12035;49.978;8.298;2023-01-31T07:18:31;5.70;70.70
23713;DHT22;12035;49.978;8.298;2023-01-31T07:23:30;5.70;70.70
23713;DHT22;12035;49.978;8.298;2023-01-31T07:28:27;5.70;70.90
23713;DHT22;12035;49.978;8.298;2023-01-31T07:33:24;5.70;71.00
23713;DHT22;12035;49.978;8.298;2023-01-31T07:38:24;5.70;71.30
23713;DHT22;12035;49.978;8.298;2023-01-31T07:43:22;5.80;71.70
23713;DHT22;12035;49.978;8.298;2023-01-31T07:48:20;5.90;73.00
23713;DHT22;12035;49.978;8.298;2023-01-31T07:53:18;6.20;72.50
23713;DHT22;12035;49.978;8.298;2023-01-31T07:58:15;6.50;72.20
23713;DHT22;12035;49.978;8.298;2023-01-31T08:03:23;6.80;71.50
23713;DHT22;12035;49.978;8.298;2023-01-31T08:08:31;7.00;70.20
23713;DHT22;12035;49.978;8.298;2023-01-31T08:13:28;7.00;69.30
23713;DHT22;12035;49.978;8.298;2023-01-31T08:18:26;6.90;68.90
23713;DHT22;12035;49.978;8.298;2023-01-31T08:23:23;6.70;68.90
23713;DHT22;12035;49.978;8.298;2023-01-31T08:28:22;6.50;69.10
23713;DHT22;12035;49.978;8.298;2023-01-31T08:33:19;6.40;69.40
23713;DHT22;12035;49.978;8.298;2023-01-31T08:38:17;6.20;69.80
23713;DHT22;12035;49.978;8.298;2023-01-31T08:43:14;6.20;70.40
23713;DHT22;12035;49.978;8.298;2023-01-31T08:48:11;6.10;70.70
23713;DHT22;12035;49.978;8.298;2023-01-31T08:53:09;6.00;71.10
23713;DHT22;12035;49.978;8.298;2023-01-31T08:58:07;5.90;71.60
23713;DHT22;12035;49.978;8.298;2023-01-31T09:03:04;5.90;72.10
23713;DHT22;12035;49.978;8.298;2023-01-31T09:08:02;6.00;72.40
23713;DHT22;12035;49.978;8.298;2023-01-31T09:12:59;6.10;72.60
23713;DHT22;12035;49.978;8.298;2023-01-31T09:17:57;6.10;72.60
23713;DHT22;12035;49.978;8.298;2023-01-31T09:22:55;6.10;72.60
23713;DHT22;12035;49.978;8.298;2023-01-31T09:27:52;6.20;72.70
23713;DHT22;12035;49.978;8.298;2023-01-31T09:32:51;6.20;72.70
23713;DHT22;12035;49.978;8.298;2023-01-31T09:37:49;6.30;72.90
23713;DHT22;12035;49.978;8.298;2023-01-31T09:42:47;6.30;73.00
23713;DHT22;12035;49.978;8.298;2023-01-31T09:47:49;6.40;73.00
23713;DHT22;12035;49.978;8.298;2023-01-31T09:52:50;6.50;73.10
23713;DHT22;12035;49.978;8.298;2023-01-31T09:57:52;6.50;72.90
23713;DHT22;12035;49.978;8.298;2023-01-31T10:03:19;6.50;72.80
23713;DHT22;12035;49.978;8.298;2023-01-31T10:08:37;6.50;72.90
23713;DHT22;12035;49.978;8.298;2023-01-31T10:13:39;6.50;73.00
23713;DHT22;12035;49.978;8.298;2023-01-31T10:18:43;6.50;73.10
23713;DHT22;12035;49.978;8.298;2023-01-31T10:23:46;6.50;73.30
23713;DHT22;12035;49.978;8.298;2023-01-31T10:28:47;6.40;73.60
23713;DHT22;12035;49.978;8.298;2023-01-31T10:33:50;6.40;73.90
23713;DHT22;12035;49.978;8.298;2023-01-31T10:38:57;6.40;74.30
23713;DHT22;12035;49.978;8.298;2023-01-31T10:43:58;6.40;74.30
23713;DHT22;12035;49.978;8.298;2023-01-31T10:48:57;6.50;74.30
23713;DHT22;12035;49.978;8.298;2023-01-31T10:54:06;6.50;74.10
23713;DHT22;12035;49.978;8.298;2023-01-31T10:59:16;6.70;74.20
23713;DHT22;12035;49.978;8.298;2023-01-31T11:04:28;6.70;73.90
23713;DHT22;12035;49.978;8.298;2023-01-31T11:09:31;6.80;73.80
23713;DHT22;12035;49.978;8.298;2023-01-31T11:14:30;6.80;73.40
23713;DHT22;12035;49.978;8.298;2023-01-31T11:19:39;6.80;73.20
23713;DHT22;12035;49.978;8.298;2023-01-31T11:24:46;6.90;73.10
23713;DHT22;12035;49.978;8.298;2023-01-31T11:29:47;6.90;73.00
23713;DHT22;12035;49.978;8.298;2023-01-31T11:34:55;7.00;73.20
23713;DHT22;12035;49.978;8.298;2023-01-31T11:39:56;7.00;73.20
23713;DHT22;12035;49.978;8.298;2023-01-31T11:44:57;7.00;73.30
23713;DHT22;12035;49.978;8.298;2023-01-31T11:49:56;7.10;73.30
23713;DHT22;12035;49.978;8.298;2023-01-31T11:54:57;7.10;73.30
23713;DHT22;12035;49.978;8.298;2023-01-31T11:59:57;7.10;73.40
23713;DHT22;12035;49.978;8.298;2023-01-31T12:04:55;7.10;73.40
23713;DHT22;12035;49.978;8.298;2023-01-31T12:09:52;7.20;73.30
23713;DHT22;12035;49.978;8.298;2023-01-31T12:14:54;7.30;73.40
23713;DHT22;12035;49.978;8.298;2023-01-31T12:20:18;7.30;73.30
23713;DHT22;12035;49.978;8.298;2023-01-31T12:25:24;7.40;73.40
23713;DHT22;12035;49.978;8.298;2023-01-31T12:30:50;7.40;73.30
23713;DHT22;12035;49.978;8.298;2023-01-31T12:36:08;7.50;73.30
23713;DHT22;12035;49.978;8.298;2023-01-31T12:41:18;7.50;73.40
23713;DHT22;12035;49.978;8.298;2023-01-31T12:46:24;7.60;73.30
23713;DHT22;12035;49.978;8.298;2023-01-31T12:51:39;7.60;73.40
23713;DHT22;12035;49.978;8.298;2023-01-31T12:56:49;7.60;73.30
23713;DHT22;12035;49.978;8.298;2023-01-31T13:01:57;7.60;73.40
23713;DHT22;12035;49.978;8.298;2023-01-31T13:07:01;7.70;73.50
23713;DHT22;12035;49.978;8.298;2023-01-31T13:12:05;7.80;73.30
23713;DHT22;12035;49.978;8.298;2023-01-31T13:17:09;7.80;73.10
23713;DHT22;12035;49.978;8.298;2023-01-31T13:22:13;7.90;73.20
23713;DHT22;12035;49.978;8.298;2023-01-31T13:27:18;7.90;73.30
23713;DHT22;12035;49.978;8.298;2023-01-31T13:32:26;8.00;73.30
23713;DHT22;12035;49.978;8.298;2023-01-31T13:37:25;8.00;73.30
23713;DHT22;12035;49.978;8.298;2023-01-31T13:42:24;8.10;73.40
23713;DHT22;12035;49.978;8.298;2023-01-31T13:47:26;8.10;73.40
23713;DHT22;12035;49.978;8.298;2023-01-31T13:52:28;8.10;73.40
23713;DHT22;12035;49.978;8.298;2023-01-31T13:57:29;8.10;73.40
23713;DHT22;12035;49.978;8.298;2023-01-31T14:02:30;8.20;73.60
23713;DHT22;12035;49.978;8.298;2023-01-31T14:07:27;8.20;73.60
23713;DHT22;12035;49.978;8.298;2023-01-31T14:12:34;8.20;73.80
23713;DHT22;12035;49.978;8.298;2023-01-31T14:17:59;8.20;74.30
23713;DHT22;12035;49.978;8.298;2023-01-31T14:23:29;8.20;74.50
23713;DHT22;12035;49.978;8.298;2023-01-31T14:28:29;8.20;75.10
23713;DHT22;12035;49.978;8.298;2023-01-31T14:33:28;8.10;75.40
23713;DHT22;12035;49.978;8.298;2023-01-31T14:38:38;8.10;76.20
23713;DHT22;12035;49.978;8.298;2023-01-31T14:43:51;8.10;77.00
23713;DHT22;12035;49.978;8.298;2023-01-31T14:49:17;8.10;77.40
23713;DHT22;12035;49.978;8.298;2023-01-31T14:54:34;8.00;77.90
23713;DHT22;12035;49.978;8.298;2023-01-31T14:59:51;8.00;78.10
23713;DHT22;12035;49.978;8.298;2023-01-31T15:04:55;7.90;78.20
23713;DHT22;12035;49.978;8.298;2023-01-31T15:09:53;7.90;78.50
23713;DHT22;12035;49.978;8.298;2023-01-31T15:14:51;7.90;78.60
23713;DHT22;12035;49.978;8.298;2023-01-31T15:19:53;7.90;78.80
23713;DHT22;12035;49.978;8.298;2023-01-31T15:25:05;7.80;79.10
23713;DHT22;12035;49.978;8.298;2023-01-31T15:30:10;7.80;79.30
23713;DHT22;12035;49.978;8.298;2023-01-31T15:35:18;7.80;79.40
23713;DHT22;12035;49.978;8.298;2023-01-31T15:40:20;7.80;79.60
23713;DHT22;12035;49.978;8.298;2023-01-31T15:45:23;7.80;79.70
23713;DHT22;12035;49.978;8.298;2023-01-31T15:50:22;7.90;80.00
23713;DHT22;12035;49.978;8.298;2023-01-31T15:55:20;7.90;80.10
23713;DHT22;12035;49.978;8.298;2023-01-31T16:00:20;7.80;80.00
23713;DHT22;12035;49.978;8.298;2023-01-31T16:05:21;7.80;80.10
23713;DHT22;12035;49.978;8.298;2023-01-31T16:10:19;7.80;80.30
23713;DHT22;12035;49.978;8.298;2023-01-31T16:15:19;7.80;80.40
23713;DHT22;12035;49.978;8.298;2023-01-31T16:20:41;7.80;80.60
23713;DHT22;12035;49.978;8.298;2023-01-31T16:25:39;7.80;80.80
23713;DHT22;12035;49.978;8.298;2023-01-31T16:30:37;7.80;80.50
23713;DHT22;12035;49.978;8.298;2023-01-31T16:35:37;7.80;80.40
23713;DHT22;12035;49.978;8.298;2023-01-31T16:40:35;7.80;80.40
23713;DHT22;12035;49.978;8.298;2023-01-31T16:45:49;7.80;80.40
23713;DHT22;12035;49.978;8.298;2023-01-31T16:50:48;7.90;80.40
23713;DHT22;12035;49.978;8.298;2023-01-31T16:56:17;7.90;80.20
23713;DHT22;12035;49.978;8.298;2023-01-31T17:01:19;7.90;80.30
23713;DHT22;12035;49.978;8.298;2023-01-31T17:06:21;8.00;80.00
23713;DHT22;12035;49.978;8.298;2023-01-31T17:11:18;8.00;79.90
23713;DHT22;12035;49.978;8.298;2023-01-31T17:16:20;8.00;79.60
23713;DHT22;12035;49.978;8.298;2023-01-31T17:21:21;8.10;79.60
23713;DHT22;12035;49.978;8.298;2023-01-31T17:26:21;8.10;79.50
23713;DHT22;12035;49.978;8.298;2023-01-31T17:31:20;8.10;79.40
23713;DHT22;12035;49.978;8.298;2023-01-31T17:36:18;8.20;79.30
23713;DHT22;12035;49.978;8.298;2023-01-31T17:41:18;8.20;79.30
23713;DHT22;12035;49.978;8.298;2023-01-31T17:46:19;8.20;79.40
23713;DHT22;12035;49.978;8.298;2023-01-31T17:51:16;8.30;79.40
23713;DHT22;12035;49.978;8.298;2023-01-31T17:56:13;8.30;79.30
23713;DHT22;12035;49.978;8.298;2023-01-31T18:01:12;8.30;79.40
23713;DHT22;12035;49.978;8.298;2023-01-31T18:06:09;8.30;79.50
23713;DHT22;12035;49.978;8.298;2023-01-31T18:11:09;8.30;79.40
23713;DHT22;12035;49.978;8.298;2023-01-31T18:16:12;8.30;79.50
23713;DHT22;12035;49.978;8.298;2023-01-31T18:21:11;8.30;79.40
23713;DHT22;12035;49.978;8.298;2023-01-31T18:26:10;8.30;79.30
23713;DHT22;12035;49.978;8.298;2023-01-31T18:31:13;8.30;79.30
23713;DHT22;12035;49.978;8.298;2023-01-31T18:36:12;8.40;79.30
23713;DHT22;12035;49.978;8.298;2023-01-31T18:41:12;8.40;79.30
23713;DHT22;12035;49.978;8.298;2023-01-31T18:46:21;8.40;79.30
23713;DHT22;12035;49.978;8.298;2023-01-31T18:51:18;8.40;79.40
23713;DHT22;12035;49.978;8.298;2023-01-31T18:56:17;8.40;79.40
23713;DHT22;12035;49.978;8.298;2023-01-31T19:01:18;8.40;79.40
23713;DHT22;12035;49.978;8.298;2023-01-31T19:06:17;8.40;79.50
23713;DHT22;12035;49.978;8.298;2023-01-31T19:11:16;8.40;79.50
23713;DHT22;12035;49.978;8.298;2023-01-31T19:16:17;8.40;79.50
23713;DHT22;12035;49.978;8.298;2023-01-31T19:21:17;8.40;79.50
23713;DHT22;12035;49.978;8.298;2023-01-31T19:26:16;8.50;79.60
23713;DHT22;12035;49.978;8.298;2023-01-31T19:31:16;8.40;79.60
23713;DHT22;12035;49.978;8.298;2023-01-31T19:36:15;8.40;79.60
23713;DHT22;12035;49.978;8.298;2023-01-31T19:41:15;8.50;79.70
23713;DHT22;12035;49.978;8.298;2023-01-31T19:46:13;8.50;79.70
23713;DHT22;12035;49.978;8.298;2023-01-31T19:51:14;8.50;79.70
23713;DHT22;12035;49.978;8.298;2023-01-31T19:56:12;8.50;79.70
23713;DHT22;12035;49.978;8.298;2023-01-31T20:01:11;8.50;79.80
23713;DHT22;12035;49.978;8.298;2023-01-31T20:06:13;8.50;79.90
23713;DHT22;12035;49.978;8.298;2023-01-31T20:11:11;8.50;80.00
23713;DHT22;12035;49.978;8.298;2023-01-31T20:16:11;8.50;80.10
23713;DHT22;12035;49.978;8.298;2023-01-31T20:21:14;8.40;80.10
23713;DHT22;12035;49.978;8.298;2023-01-31T20:26:13;8.40;80.20
23713;DHT22;12035;49.978;8.298;2023-01-31T20:31:13;8.40;80.10
23713;DHT22;12035;49.978;8.298;2023-01-31T20:36:10;8.40;80.10
23713;DHT22;12035;49.978;8.298;2023-01-31T20:41:09;8.40;80.10
23713;DHT22;12035;49.978;8.298;2023-01-31T20:46:10;8.50;80.10
23713;DHT22;12035;49.978;8.298;2023-01-31T20:51:08;8.50;80.10
23713;DHT22;12035;49.978;8.298;2023-01-31T20:56:09;8.50;80.00
23713;DHT22;12035;49.978;8.298;2023-01-31T21:01:07;8.50;80.00
23713;DHT22;12035;49.978;8.298;2023-01-31T21:06:20;8.50;79.90
23713;DHT22;12035;49.978;8.298;2023-01-31T21:11:21;8.50;79.80
23713;DHT22;12035;49.978;8.298;2023-01-31T21:16:21;8.60;79.70
23713;DHT22;12035;49.978;8.298;2023-01-31T21:21:19;8.60;79.60
23713;DHT22;12035;49.978;8.298;2023-01-31T21:26:18;8.60;79.50
23713;DHT22;12035;49.978;8.298;2023-01-31T21:31:18;8.60;79.40
23713;DHT22;12035;49.978;8.298;2023-01-31T21:36:22;8.60;79.40
23713;DHT22;12035;49.978;8.298;2023-01-31T21:41:20;8.60;79.30
23713;DHT22;12035;49.978;8.298;2023-01-31T21:46:36;8.60;79.20
23713;DHT22;12035;49.978;8.298;2023-01-31T21:51:33;8.70;79.20
23713;DHT22;12035;49.978;8.298;2023-01-31T21:56:30;8.70;79.10
23713;DHT22;12035;49.978;8.298;2023-01-31T22:01:29;8.70;79.30
23713;DHT22;12035;49.978;8.298;2023-01-31T22:06:34;8.70;79.50
23713;DHT22;12035;49.978;8.298;2023-01-31T22:11:32;8.70;79.70
23713;DHT22;12035;49.978;8.298;2023-01-31T22:16:30;8.70;79.60
23713;DHT22;12035;49.978;8.298;2023-01-31T22:21:31;8.70;79.70
23713;DHT22;12035;49.978;8.298;2023-01-31T22:26:31;8.70;79.80
23713;DHT22;12035;49.978;8.298;2023-01-31T22:31:30;8.80;79.70
23713;DHT22;12035;49.978;8.298;2023-01-31T22:36:29;8.70;79.50
23713;DHT22;12035;49.978;8.298;2023-01-31T22:41:26;8.70;79.70
23713;DHT22;12035;49.978;8.298;2023-01-31T22:46:25;8.70;79.70
23713;DHT22;12035;49.978;8.298;2023-01-31T22:51:25;8.70;79.90
23713;DHT22;12035;49.978;8.298;2023-01-31T22:56:27;8.60;80.00
23713;DHT22;12035;49.978;8.298;2023-01-31T23:01:27;8.60;80.00
23713;DHT22;12035;49.978;8.298;2023-01-31T23:06:25;8.50;80.00
23713;DHT22;12035;49.978;8.298;2023-01-31T23:11:25;8.50;80.10
23713;DHT22;12035;49.978;8.298;2023-01-31T23:16:24;8.50;80.20
23713;DHT22;12035;49.978;8.298;2023-01-31T23:21:42;8.50;80.20
23713;DHT22;12035;49.978;8.298;2023-01-31T23:26:41;8.50;80.20
23713;DHT22;12035;49.978;8.298;2023-01-31T23:31:38;8.50;80.10
23713;DHT22;12035;49.978;8.298;2023-01-31T23:36:36;8.50;80.00
23713;DHT22;12035;49.978;8.298;2023-01-31T23:41:33;8.50;80.00
23713;DHT22;12035;49.978;8.298;2023-01-31T23:46:31;8.50;79.90
23713;DHT22;12035;49.978;8.298;2023-01-31T23:51:28;8.50;79.80
23713;DHT22;12035;49.978;8.298;2023-01-31T23:56:28;8.50;79.80
